createdAt,value
2018-08-14T00:00:42.572Z,0.00
2018-08-14T00:01:42.598Z,0.00
2018-08-14T00:02:42.615Z,0.00
2018-08-14T00:03:42.640Z,0.00
2018-08-14T00:04:42.666Z,0.00
2018-08-14T00:05:42.695Z,0.00
2018-08-14T00:06:42.710Z,0.00
2018-08-14T00:07:42.892Z,0.00
2018-08-14T00:08:42.758Z,0.00
2018-08-14T00:09:42.784Z,0.00
2018-08-14T00:10:42.805Z,0.00
2018-08-14T00:11:42.826Z,0.00
2018-08-14T00:12:42.852Z,0.00
2018-08-14T00:13:42.879Z,0.00
2018-08-14T00:14:42.906Z,0.00
2018-08-14T00:15:42.928Z,0.00
2018-08-14T00:16:42.952Z,0.00
2018-08-14T00:17:42.976Z,0.00
2018-08-14T00:18:42.998Z,0.00
2018-08-14T00:19:43.023Z,0.00
2018-08-14T00:20:43.043Z,0.00
2018-08-14T00:21:43.063Z,0.00
2018-08-14T00:22:43.095Z,0.00
2018-08-14T00:23:43.119Z,0.00
2018-08-14T00:24:43.139Z,0.00
2018-08-14T00:25:43.167Z,4.00
2018-08-14T00:26:43.187Z,0.00
2018-08-14T00:27:43.210Z,0.00
2018-08-14T00:28:43.232Z,0.00
2018-08-14T00:29:43.261Z,0.00
2018-08-14T00:30:43.285Z,0.00
2018-08-14T00:31:43.312Z,0.00
2018-08-14T00:32:43.331Z,0.00
2018-08-14T00:33:43.355Z,0.00
2018-08-14T00:34:43.382Z,0.00
2018-08-14T00:35:43.402Z,0.00
2018-08-14T00:36:43.433Z,0.00
2018-08-14T00:37:43.446Z,0.00
2018-08-14T00:38:43.478Z,0.00
2018-08-14T00:39:43.496Z,0.00
2018-08-14T00:40:43.516Z,4.00
2018-08-14T00:41:43.546Z,0.00
2018-08-14T00:42:43.564Z,0.00
2018-08-14T00:43:43.591Z,0.00
2018-08-14T00:44:43.616Z,0.00
2018-08-14T00:45:43.637Z,0.00
2018-08-14T00:46:43.665Z,0.00
2018-08-14T00:47:43.686Z,0.00
2018-08-14T00:48:43.712Z,0.00
2018-08-14T00:49:43.734Z,0.00
2018-08-14T00:50:43.764Z,0.00
2018-08-14T00:51:43.786Z,0.00
2018-08-14T00:52:43.813Z,0.00
2018-08-14T00:53:43.836Z,0.00
2018-08-14T00:54:43.859Z,0.00
2018-08-14T00:55:43.874Z,0.00
2018-08-14T00:56:43.909Z,0.00
2018-08-14T00:57:43.920Z,0.00
2018-08-14T00:58:43.958Z,0.00
2018-08-14T00:59:43.981Z,0.00
2018-08-14T01:00:43.997Z,0.00
2018-08-14T01:01:44.024Z,0.00
2018-08-14T01:02:44.047Z,0.00
2018-08-14T01:03:44.076Z,0.00
2018-08-14T01:04:44.092Z,0.00
2018-08-14T01:05:44.116Z,0.00
2018-08-14T01:06:44.142Z,0.00
2018-08-14T01:07:44.160Z,0.00
2018-08-14T01:08:44.185Z,0.00
2018-08-14T01:09:44.210Z,0.00
2018-08-14T01:10:44.236Z,4.00
2018-08-14T01:11:44.263Z,0.00
2018-08-14T01:12:44.281Z,0.00
2018-08-14T01:13:44.310Z,0.00
2018-08-14T01:14:44.331Z,0.00
2018-08-14T01:15:44.351Z,0.00
2018-08-14T01:16:44.381Z,0.00
2018-08-14T01:17:44.402Z,0.00
2018-08-14T01:18:44.425Z,0.00
2018-08-14T01:19:44.448Z,0.00
2018-08-14T01:20:44.467Z,0.00
2018-08-14T01:21:44.494Z,0.00
2018-08-14T01:22:44.522Z,0.00
2018-08-14T01:23:44.546Z,0.00
2018-08-14T01:24:44.570Z,0.00
2018-08-14T01:25:44.590Z,0.00
2018-08-14T01:26:44.620Z,0.00
2018-08-14T01:27:44.642Z,0.00
2018-08-14T01:28:44.661Z,0.00
2018-08-14T01:29:44.688Z,0.00
2018-08-14T01:30:44.712Z,0.00
2018-08-14T01:31:44.732Z,0.00
2018-08-14T01:32:44.759Z,0.00
2018-08-14T01:33:44.780Z,0.00
2018-08-14T01:34:44.802Z,0.00
2018-08-14T01:35:44.831Z,0.00
2018-08-14T01:36:44.850Z,0.00
2018-08-14T01:37:44.878Z,0.00
2018-08-14T01:38:44.900Z,0.00
2018-08-14T01:39:44.922Z,0.00
2018-08-14T01:40:44.949Z,4.00
2018-08-14T01:41:44.970Z,0.00
2018-08-14T01:42:44.994Z,0.00
2018-08-14T01:43:45.021Z,0.00
2018-08-14T01:44:45.048Z,0.00
2018-08-14T01:45:45.072Z,0.00
2018-08-14T01:46:45.090Z,0.00
2018-08-14T01:47:45.118Z,0.00
2018-08-14T01:48:45.138Z,0.00
2018-08-14T01:49:45.162Z,0.00
2018-08-14T01:50:45.182Z,0.00
2018-08-14T01:51:45.208Z,0.00
2018-08-14T01:52:45.230Z,0.00
2018-08-14T01:53:45.256Z,4.00
2018-08-14T01:54:45.278Z,0.00
2018-08-14T01:55:45.304Z,0.00
2018-08-14T01:56:45.328Z,0.00
2018-08-14T01:57:45.356Z,0.00
2018-08-14T01:58:45.375Z,0.00
2018-08-14T01:59:45.402Z,0.00
2018-08-14T02:00:45.422Z,0.00
2018-08-14T02:01:45.447Z,0.00
2018-08-14T02:02:45.472Z,0.00
2018-08-14T02:03:45.502Z,0.00
2018-08-14T02:04:45.514Z,0.00
2018-08-14T02:05:45.539Z,0.00
2018-08-14T02:06:45.562Z,0.00
2018-08-14T02:07:45.597Z,0.00
2018-08-14T02:08:45.613Z,0.00
2018-08-14T02:09:45.636Z,0.00
2018-08-14T02:10:45.664Z,0.00
2018-08-14T02:11:45.687Z,0.00
2018-08-14T02:12:45.705Z,0.00
2018-08-14T02:13:45.727Z,0.00
2018-08-14T02:14:45.748Z,0.00
2018-08-14T02:15:45.784Z,0.00
2018-08-14T02:16:45.801Z,0.00
2018-08-14T02:17:45.823Z,0.00
2018-08-14T02:18:45.842Z,0.00
2018-08-14T02:19:45.872Z,0.00
2018-08-14T02:20:45.894Z,0.00
2018-08-14T02:21:45.917Z,0.00
2018-08-14T02:22:45.946Z,0.00
2018-08-14T02:23:45.965Z,0.00
2018-08-14T02:24:45.997Z,0.00
2018-08-14T02:25:46.012Z,0.00
2018-08-14T02:26:46.040Z,0.00
2018-08-14T02:27:46.063Z,0.00
2018-08-14T02:28:46.086Z,0.00
2018-08-14T02:29:46.110Z,0.00
2018-08-14T02:30:46.132Z,0.00
2018-08-14T02:31:46.158Z,0.00
2018-08-14T02:32:46.184Z,0.00
2018-08-14T02:33:46.208Z,0.00
2018-08-14T02:34:46.235Z,0.00
2018-08-14T02:35:46.249Z,0.00
2018-08-14T02:36:46.276Z,0.00
2018-08-14T02:37:46.300Z,0.00
2018-08-14T02:38:46.323Z,4.00
2018-08-14T02:39:46.343Z,0.00
2018-08-14T02:40:46.366Z,0.00
2018-08-14T02:41:46.392Z,0.00
2018-08-14T02:42:46.425Z,0.00
2018-08-14T02:43:46.436Z,0.00
2018-08-14T02:44:46.468Z,0.00
2018-08-14T02:45:46.499Z,0.00
2018-08-14T02:46:46.510Z,0.00
2018-08-14T02:47:46.541Z,0.00
2018-08-14T02:48:46.560Z,0.00
2018-08-14T02:49:46.578Z,0.00
2018-08-14T02:50:46.608Z,4.00
2018-08-14T02:51:46.632Z,0.00
2018-08-14T02:52:46.651Z,0.00
2018-08-14T02:53:46.672Z,0.00
2018-08-14T02:54:46.700Z,0.00
2018-08-14T02:55:46.726Z,0.00
2018-08-14T02:56:46.746Z,0.00
2018-08-14T02:57:46.768Z,0.00
2018-08-14T02:58:46.796Z,0.00
2018-08-14T02:59:46.820Z,0.00
2018-08-14T03:00:46.850Z,0.00
2018-08-14T03:01:46.872Z,0.00
2018-08-14T03:02:46.897Z,0.00
2018-08-14T03:03:46.914Z,4.00
2018-08-14T03:04:46.939Z,0.00
2018-08-14T03:05:46.958Z,0.00
2018-08-14T03:06:46.984Z,0.00
2018-08-14T03:07:47.015Z,0.00
2018-08-14T03:08:47.028Z,0.00
2018-08-14T03:09:47.056Z,0.00
2018-08-14T03:10:47.080Z,4.00
2018-08-14T03:11:47.106Z,4.00
2018-08-14T03:12:47.123Z,0.00
2018-08-14T03:13:47.153Z,4.00
2018-08-14T03:14:47.174Z,0.00
2018-08-14T03:15:47.201Z,0.00
2018-08-14T03:16:47.224Z,4.00
2018-08-14T03:17:47.244Z,4.00
2018-08-14T03:18:47.268Z,4.00
2018-08-14T03:19:47.360Z,4.00
2018-08-14T03:20:47.319Z,4.00
2018-08-14T03:21:47.335Z,4.00
2018-08-14T03:22:47.359Z,4.00
2018-08-14T03:23:47.388Z,4.00
2018-08-14T03:24:47.411Z,4.00
2018-08-14T03:25:47.425Z,4.00
2018-08-14T03:26:47.452Z,4.00
2018-08-14T03:27:47.479Z,4.00
2018-08-14T03:28:47.509Z,8.00
2018-08-14T03:29:47.526Z,8.00
2018-08-14T03:30:47.548Z,8.00
2018-08-14T03:31:47.569Z,8.00
2018-08-14T03:32:47.597Z,8.00
2018-08-14T03:33:47.625Z,8.00
2018-08-14T03:34:47.641Z,8.00
2018-08-14T03:35:47.673Z,12.00
2018-08-14T03:36:47.695Z,8.00
2018-08-14T03:37:47.717Z,12.00
2018-08-14T03:38:47.737Z,16.00
2018-08-14T03:39:47.762Z,20.00
2018-08-14T03:40:47.787Z,20.00
2018-08-14T03:41:47.806Z,28.00
2018-08-14T03:42:47.838Z,28.00
2018-08-14T03:43:47.857Z,28.00
2018-08-14T03:44:47.883Z,32.00
2018-08-14T03:45:47.908Z,36.00
2018-08-14T03:46:47.925Z,32.00
2018-08-14T03:47:47.951Z,40.00
2018-08-14T03:48:47.981Z,52.00
2018-08-14T03:49:47.999Z,52.00
2018-08-14T03:50:48.021Z,44.00
2018-08-14T03:51:48.049Z,44.00
2018-08-14T03:52:48.067Z,56.00
2018-08-14T03:53:48.091Z,56.00
2018-08-14T03:54:48.113Z,76.00
2018-08-14T03:55:48.144Z,68.00
2018-08-14T03:56:48.167Z,68.00
2018-08-14T03:57:48.187Z,64.00
2018-08-14T03:58:48.207Z,72.00
2018-08-14T03:59:48.242Z,72.00
2018-08-14T04:00:48.255Z,84.00
2018-08-14T04:01:48.279Z,84.00
2018-08-14T04:02:48.310Z,84.00
2018-08-14T04:03:48.331Z,96.00
2018-08-14T04:04:48.353Z,100.00
2018-08-14T04:05:48.378Z,96.00
2018-08-14T04:06:48.399Z,120.00
2018-08-14T04:07:48.430Z,140.00
2018-08-14T04:08:48.449Z,160.00
2018-08-14T04:09:48.473Z,176.00
2018-08-14T04:10:48.498Z,200.00
2018-08-14T04:11:48.519Z,180.00
2018-08-14T04:12:48.542Z,168.00
2018-08-14T04:13:48.562Z,172.00
2018-08-14T04:14:48.594Z,176.00
2018-08-14T04:15:48.613Z,224.00
2018-08-14T04:16:48.631Z,212.00
2018-08-14T04:17:48.661Z,216.00
2018-08-14T04:18:48.681Z,240.00
2018-08-14T04:19:48.703Z,224.00
2018-08-14T04:20:48.729Z,216.00
2018-08-14T04:21:48.749Z,244.00
2018-08-14T04:22:48.773Z,220.00
2018-08-14T04:23:48.802Z,240.00
2018-08-14T04:24:48.822Z,256.00
2018-08-14T04:25:48.846Z,268.00
2018-08-14T04:26:48.979Z,288.00
2018-08-14T04:27:48.895Z,280.00
2018-08-14T04:28:48.916Z,264.00
2018-08-14T04:29:48.941Z,264.00
2018-08-14T04:30:48.965Z,260.00
2018-08-14T04:31:48.993Z,284.00
2018-08-14T04:32:49.013Z,288.00
2018-08-14T04:33:49.041Z,336.00
2018-08-14T04:34:49.061Z,372.00
2018-08-14T04:35:49.083Z,376.00
2018-08-14T04:36:49.114Z,340.00
2018-08-14T04:37:49.131Z,256.00
2018-08-14T04:38:49.155Z,228.00
2018-08-14T04:39:49.182Z,236.00
2018-08-14T04:40:49.206Z,316.00
2018-08-14T04:41:49.228Z,444.00
2018-08-14T04:42:49.248Z,392.00
2018-08-14T04:43:49.272Z,360.00
2018-08-14T04:44:49.300Z,368.00
2018-08-14T04:45:49.334Z,372.00
2018-08-14T04:46:49.347Z,376.00
2018-08-14T04:47:49.361Z,448.00
2018-08-14T04:48:49.396Z,596.00
2018-08-14T04:49:49.415Z,700.00
2018-08-14T04:50:49.439Z,600.00
2018-08-14T04:51:49.475Z,700.00
2018-08-14T04:52:49.491Z,836.00
2018-08-14T04:53:49.519Z,840.00
2018-08-14T04:54:49.587Z,864.00
2018-08-14T04:55:49.559Z,940.00
2018-08-14T04:56:49.585Z,944.00
2018-08-14T04:57:49.605Z,992.00
2018-08-14T04:58:49.628Z,996.00
2018-08-14T04:59:49.654Z,948.00
2018-08-14T05:00:49.681Z,1020.00
2018-08-14T05:01:49.718Z,1060.00
2018-08-14T05:02:49.727Z,1060.00
2018-08-14T05:03:49.745Z,876.00
2018-08-14T05:04:49.767Z,900.00
2018-08-14T05:05:49.795Z,896.00
2018-08-14T05:06:49.815Z,1028.00
2018-08-14T05:07:49.839Z,972.00
2018-08-14T05:08:49.881Z,1008.00
2018-08-14T05:09:49.926Z,1160.00
2018-08-14T05:10:49.913Z,1252.00
2018-08-14T05:11:49.943Z,1184.00
2018-08-14T05:12:49.961Z,884.00
2018-08-14T05:13:49.981Z,864.00
2018-08-14T05:14:50.004Z,928.00
2018-08-14T05:15:50.033Z,956.00
2018-08-14T05:16:50.055Z,1032.00
2018-08-14T05:17:50.081Z,1260.00
2018-08-14T05:18:50.107Z,1520.00
2018-08-14T05:19:50.127Z,1812.00
2018-08-14T05:20:50.157Z,1896.00
2018-08-14T05:21:50.173Z,1984.00
2018-08-14T05:22:50.199Z,1940.00
2018-08-14T05:23:50.227Z,1864.00
2018-08-14T05:24:50.248Z,2084.00
2018-08-14T05:25:50.324Z,2348.00
2018-08-14T05:26:50.293Z,2360.00
2018-08-14T05:27:50.319Z,2248.00
2018-08-14T05:28:50.345Z,2028.00
2018-08-14T05:29:50.372Z,2132.00
2018-08-14T05:30:50.393Z,2424.00
2018-08-14T05:31:50.411Z,2532.00
2018-08-14T05:32:50.438Z,2356.00
2018-08-14T05:33:50.550Z,2288.00
2018-08-14T05:34:50.484Z,2376.00
2018-08-14T05:35:50.508Z,2136.00
2018-08-14T05:36:50.536Z,1704.00
2018-08-14T05:37:50.558Z,1728.00
2018-08-14T05:38:50.585Z,2060.00
2018-08-14T05:39:50.602Z,2472.00
2018-08-14T05:40:50.627Z,2884.00
2018-08-14T05:41:50.653Z,3144.00
2018-08-14T05:42:50.676Z,3200.00
2018-08-14T05:43:50.704Z,3116.00
2018-08-14T05:44:50.726Z,3192.00
2018-08-14T05:45:50.747Z,3204.00
2018-08-14T05:46:50.772Z,3544.00
2018-08-14T05:47:50.798Z,3816.00
2018-08-14T05:48:50.817Z,3984.00
2018-08-14T05:49:50.844Z,4508.00
2018-08-14T05:50:50.865Z,3672.00
2018-08-14T05:51:50.895Z,3412.00
2018-08-14T05:52:50.960Z,3344.00
2018-08-14T05:53:50.944Z,3360.00
2018-08-14T05:54:50.963Z,3292.00
2018-08-14T05:55:50.988Z,3364.00
2018-08-14T05:56:51.012Z,3480.00
2018-08-14T05:57:51.030Z,3772.00
2018-08-14T05:58:51.058Z,4016.00
2018-08-14T05:59:51.083Z,4200.00
2018-08-14T06:00:51.107Z,4128.00
2018-08-14T06:01:51.267Z,4048.00
2018-08-14T06:02:51.157Z,4756.00
2018-08-14T06:03:51.179Z,5108.00
2018-08-14T06:04:51.203Z,4976.00
2018-08-14T06:05:51.233Z,6272.00
2018-08-14T06:06:51.252Z,6532.00
2018-08-14T06:07:51.279Z,6732.00
2018-08-14T06:08:51.303Z,6276.00
2018-08-14T06:09:51.327Z,5656.00
2018-08-14T06:10:51.357Z,4780.00
2018-08-14T06:11:51.377Z,5840.00
2018-08-14T06:12:51.394Z,6608.00
2018-08-14T06:13:51.421Z,5480.00
2018-08-14T06:14:51.447Z,6572.00
2018-08-14T06:15:51.470Z,6200.00
2018-08-14T06:16:51.500Z,5532.00
2018-08-14T06:17:51.521Z,4204.00
2018-08-14T06:18:51.544Z,5036.00
2018-08-14T06:19:51.565Z,4268.00
2018-08-14T06:20:51.595Z,4136.00
2018-08-14T06:21:51.616Z,3960.00
2018-08-14T06:22:51.646Z,4148.00
2018-08-14T06:23:51.668Z,4016.00
2018-08-14T06:24:51.695Z,3620.00
2018-08-14T06:25:51.723Z,3788.00
2018-08-14T06:26:51.734Z,3952.00
2018-08-14T06:27:51.762Z,3988.00
2018-08-14T06:28:51.791Z,3920.00
2018-08-14T06:29:51.813Z,4300.00
2018-08-14T06:30:51.840Z,4012.00
2018-08-14T06:31:51.860Z,3724.00
2018-08-14T06:32:51.889Z,4024.00
2018-08-14T06:33:51.915Z,4716.00
2018-08-14T06:34:51.937Z,4904.00
2018-08-14T06:35:51.961Z,4688.00
2018-08-14T06:36:51.983Z,4716.00
2018-08-14T06:37:52.005Z,4460.00
2018-08-14T06:38:52.035Z,4292.00
2018-08-14T06:39:52.053Z,4340.00
2018-08-14T06:40:52.086Z,4828.00
2018-08-14T06:41:52.106Z,5412.00
2018-08-14T06:42:52.131Z,5916.00
2018-08-14T06:43:52.161Z,5600.00
2018-08-14T06:44:52.180Z,5684.00
2018-08-14T06:45:52.207Z,5908.00
2018-08-14T06:46:52.226Z,5844.00
2018-08-14T06:47:52.255Z,5812.00
2018-08-14T06:48:52.307Z,6340.00
2018-08-14T06:49:52.302Z,6076.00
2018-08-14T06:50:52.327Z,5560.00
2018-08-14T06:51:52.359Z,5232.00
2018-08-14T06:52:52.376Z,5204.00
2018-08-14T06:53:52.404Z,6164.00
2018-08-14T06:54:52.428Z,6480.00
2018-08-14T06:55:52.449Z,5908.00
2018-08-14T06:56:52.479Z,5632.00
2018-08-14T06:57:52.499Z,6568.00
2018-08-14T06:58:52.517Z,5576.00
2018-08-14T06:59:52.549Z,5324.00
2018-08-14T07:00:52.570Z,5588.00
2018-08-14T07:01:52.592Z,6732.00
2018-08-14T07:02:52.619Z,7236.00
2018-08-14T07:03:52.640Z,7872.00
2018-08-14T07:04:52.674Z,7596.00
2018-08-14T07:05:52.692Z,8596.00
2018-08-14T07:06:52.713Z,8536.00
2018-08-14T07:07:52.741Z,7412.00
2018-08-14T07:08:52.769Z,6872.00
2018-08-14T07:09:52.794Z,6536.00
2018-08-14T07:10:52.819Z,6452.00
2018-08-14T07:11:52.842Z,6256.00
2018-08-14T07:12:52.874Z,6512.00
2018-08-14T07:13:52.891Z,6660.00
2018-08-14T07:14:52.915Z,7780.00
2018-08-14T07:15:52.942Z,9308.00
2018-08-14T07:16:52.963Z,9748.00
2018-08-14T07:17:52.986Z,9920.00
2018-08-14T07:18:53.012Z,9100.00
2018-08-14T07:19:53.080Z,9116.00
2018-08-14T07:20:53.064Z,8936.00
2018-08-14T07:21:53.092Z,8240.00
2018-08-14T07:22:53.117Z,8380.00
2018-08-14T07:23:53.134Z,7824.00
2018-08-14T07:24:53.165Z,7868.00
2018-08-14T07:25:53.190Z,8708.00
2018-08-14T07:26:53.208Z,8352.00
2018-08-14T07:27:53.238Z,9616.00
2018-08-14T07:28:53.270Z,9272.00
2018-08-14T07:29:53.284Z,9284.00
2018-08-14T07:30:53.315Z,9916.00
2018-08-14T07:31:53.335Z,9428.00
2018-08-14T07:32:53.364Z,9756.00
2018-08-14T07:33:53.388Z,10260.00
2018-08-14T07:34:53.408Z,9512.00
2018-08-14T07:35:53.436Z,9888.00
2018-08-14T07:36:53.466Z,9312.00
2018-08-14T07:37:53.488Z,8912.00
2018-08-14T07:38:53.522Z,8948.00
2018-08-14T07:39:53.536Z,9932.00
2018-08-14T07:40:53.566Z,9696.00
2018-08-14T07:41:53.601Z,8560.00
2018-08-14T07:42:53.608Z,7656.00
2018-08-14T07:43:53.639Z,6544.00
2018-08-14T07:44:53.662Z,5924.00
2018-08-14T07:45:53.689Z,4832.00
2018-08-14T07:46:53.718Z,4396.00
2018-08-14T07:47:53.740Z,3728.00
2018-08-14T07:48:53.760Z,3992.00
2018-08-14T07:49:53.783Z,3524.00
2018-08-14T07:50:53.816Z,3468.00
2018-08-14T07:51:53.834Z,3700.00
2018-08-14T07:52:53.858Z,5236.00
2018-08-14T07:53:53.888Z,5772.00
2018-08-14T07:54:53.920Z,6728.00
2018-08-14T07:55:53.938Z,7984.00
2018-08-14T07:56:53.962Z,7432.00
2018-08-14T07:57:54.015Z,7084.00
2018-08-14T07:58:54.013Z,6648.00
2018-08-14T07:59:54.040Z,6424.00
2018-08-14T08:00:54.058Z,6404.00
2018-08-14T08:01:54.090Z,7124.00
2018-08-14T08:02:54.110Z,8704.00
2018-08-14T08:03:54.138Z,9688.00
2018-08-14T08:04:54.157Z,10340.00
2018-08-14T08:05:54.188Z,10896.00
2018-08-14T08:06:54.206Z,11576.00
2018-08-14T08:07:54.236Z,11544.00
2018-08-14T08:08:54.257Z,12128.00
2018-08-14T08:09:54.286Z,12944.00
2018-08-14T08:10:54.312Z,12492.00
2018-08-14T08:11:54.371Z,12760.00
2018-08-14T08:12:54.356Z,12440.00
2018-08-14T08:13:54.390Z,12412.00
2018-08-14T08:14:54.412Z,12624.00
2018-08-14T08:15:54.438Z,13280.00
2018-08-14T08:16:54.465Z,11696.00
2018-08-14T08:17:54.488Z,11728.00
2018-08-14T08:18:54.512Z,12308.00
2018-08-14T08:19:54.538Z,11732.00
2018-08-14T08:20:54.560Z,12400.00
2018-08-14T08:21:54.585Z,11424.00
2018-08-14T08:22:54.618Z,12116.00
2018-08-14T08:23:54.638Z,11840.00
2018-08-14T08:24:54.668Z,11248.00
2018-08-14T08:25:54.693Z,8572.00
2018-08-14T08:26:54.767Z,7272.00
2018-08-14T08:27:54.740Z,6348.00
2018-08-14T08:28:54.762Z,6092.00
2018-08-14T08:29:54.792Z,5832.00
2018-08-14T08:30:54.812Z,5684.00
2018-08-14T08:31:54.845Z,8396.00
2018-08-14T08:32:54.867Z,11864.00
2018-08-14T08:33:54.896Z,12816.00
2018-08-14T08:34:54.914Z,11772.00
2018-08-14T08:35:54.940Z,11616.00
2018-08-14T08:36:54.964Z,12656.00
2018-08-14T08:37:54.989Z,11388.00
2018-08-14T08:38:55.024Z,10236.00
2018-08-14T08:39:55.046Z,8680.00
2018-08-14T08:40:55.076Z,7488.00
2018-08-14T08:41:55.103Z,7344.00
2018-08-14T08:42:55.123Z,8760.00
2018-08-14T08:43:55.152Z,9948.00
2018-08-14T08:44:55.175Z,12052.00
2018-08-14T08:45:55.200Z,12824.00
2018-08-14T08:46:55.229Z,13600.00
2018-08-14T08:47:55.248Z,14552.00
2018-08-14T08:48:55.294Z,15956.00
2018-08-14T08:49:55.304Z,15352.00
2018-08-14T08:50:55.330Z,15996.00
2018-08-14T08:51:55.352Z,17048.00
2018-08-14T08:52:55.375Z,15456.00
2018-08-14T08:53:55.401Z,13824.00
2018-08-14T08:54:55.427Z,13760.00
2018-08-14T08:55:55.452Z,14244.00
2018-08-14T08:56:55.486Z,15260.00
2018-08-14T08:57:55.504Z,15484.00
2018-08-14T08:58:55.531Z,15940.00
2018-08-14T08:59:55.559Z,15548.00
2018-08-14T09:00:55.581Z,15684.00
2018-08-14T09:01:55.615Z,15776.00
2018-08-14T09:02:55.630Z,16144.00
2018-08-14T09:03:55.665Z,15636.00
2018-08-14T09:04:55.692Z,15236.00
2018-08-14T09:05:55.714Z,18112.00
2018-08-14T09:06:55.748Z,19968.00
2018-08-14T09:07:55.772Z,19840.00
2018-08-14T09:08:55.784Z,20000.00
2018-08-14T09:09:55.819Z,20256.00
2018-08-14T09:10:55.848Z,19168.00
2018-08-14T09:11:55.872Z,17408.00
2018-08-14T09:12:55.893Z,17204.00
2018-08-14T09:13:55.919Z,13568.00
2018-08-14T09:14:55.947Z,9120.00
2018-08-14T09:15:55.972Z,11672.00
2018-08-14T09:16:56.004Z,15776.00
2018-08-14T09:17:56.023Z,16964.00
2018-08-14T09:18:56.058Z,17288.00
2018-08-14T09:19:56.075Z,17952.00
2018-08-14T09:20:56.105Z,16704.00
2018-08-14T09:21:56.130Z,13968.00
2018-08-14T09:22:56.158Z,12124.00
2018-08-14T09:23:56.180Z,11276.00
2018-08-14T09:24:56.212Z,11396.00
2018-08-14T09:25:56.241Z,12332.00
2018-08-14T09:26:56.266Z,13064.00
2018-08-14T09:27:56.284Z,13860.00
2018-08-14T09:28:56.313Z,15232.00
2018-08-14T09:29:56.376Z,17048.00
2018-08-14T09:30:56.375Z,17856.00
2018-08-14T09:31:56.397Z,17056.00
2018-08-14T09:32:56.419Z,16744.00
2018-08-14T09:33:56.447Z,17308.00
2018-08-14T09:34:56.474Z,18848.00
2018-08-14T09:35:56.498Z,20704.00
2018-08-14T09:36:56.555Z,22080.00
2018-08-14T09:37:56.545Z,20704.00
2018-08-14T09:38:56.576Z,18688.00
2018-08-14T09:39:56.610Z,18464.00
2018-08-14T09:40:56.628Z,18400.00
2018-08-14T09:41:56.656Z,17060.00
2018-08-14T09:42:56.686Z,19392.00
2018-08-14T09:43:56.709Z,19648.00
2018-08-14T09:44:56.737Z,20032.00
2018-08-14T09:45:56.759Z,19104.00
2018-08-14T09:46:56.856Z,13956.00
2018-08-14T09:47:56.818Z,11240.00
2018-08-14T09:48:56.847Z,9248.00
2018-08-14T09:49:56.870Z,9084.00
2018-08-14T09:50:56.902Z,9816.00
2018-08-14T09:51:56.923Z,11492.00
2018-08-14T09:52:56.949Z,13104.00
2018-08-14T09:53:57.028Z,13088.00
2018-08-14T09:54:57.003Z,11984.00
2018-08-14T09:55:57.033Z,12640.00
2018-08-14T09:56:57.053Z,13052.00
2018-08-14T09:57:57.088Z,14972.00
2018-08-14T09:58:57.108Z,17404.00
2018-08-14T09:59:57.133Z,19200.00
2018-08-14T10:00:57.168Z,20672.00
2018-08-14T10:01:57.196Z,23040.00
2018-08-14T10:02:57.214Z,22912.00
2018-08-14T10:03:57.237Z,21888.00
2018-08-14T10:04:57.266Z,19584.00
2018-08-14T10:05:57.294Z,17208.00
2018-08-14T10:06:57.321Z,16332.00
2018-08-14T10:07:57.350Z,15332.00
2018-08-14T10:08:57.378Z,16592.00
2018-08-14T10:09:57.394Z,17240.00
2018-08-14T10:10:57.426Z,15564.00
2018-08-14T10:11:57.453Z,14004.00
2018-08-14T10:12:57.488Z,13608.00
2018-08-14T10:13:57.508Z,14440.00
2018-08-14T10:14:57.531Z,16436.00
2018-08-14T10:15:57.561Z,19552.00
2018-08-14T10:16:57.586Z,20096.00
2018-08-14T10:17:57.607Z,20416.00
2018-08-14T10:18:57.642Z,22400.00
2018-08-14T10:19:57.668Z,25504.00
2018-08-14T10:20:57.691Z,27424.00
2018-08-14T10:21:57.714Z,27552.00
2018-08-14T10:22:57.744Z,27392.00
2018-08-14T10:23:57.772Z,24320.00
2018-08-14T10:24:57.797Z,23136.00
2018-08-14T10:25:57.831Z,23040.00
2018-08-14T10:26:57.854Z,22912.00
2018-08-14T10:27:57.882Z,24736.00
2018-08-14T10:28:58.048Z,27040.00
2018-08-14T10:29:57.930Z,29824.00
2018-08-14T10:30:57.965Z,31584.00
2018-08-14T10:31:57.990Z,32192.00
2018-08-14T10:32:58.014Z,33408.00
2018-08-14T10:33:58.040Z,33792.00
2018-08-14T10:34:58.073Z,29888.00
2018-08-14T10:35:58.097Z,25536.00
2018-08-14T10:36:58.130Z,26880.00
2018-08-14T10:37:58.179Z,31168.00
2018-08-14T10:38:58.180Z,31744.00
2018-08-14T10:39:58.244Z,24320.00
2018-08-14T10:40:58.236Z,18336.00
2018-08-14T10:41:58.270Z,14932.00
2018-08-14T10:42:58.293Z,14936.00
2018-08-14T10:43:58.332Z,15024.00
2018-08-14T10:44:58.348Z,15180.00
2018-08-14T10:45:58.430Z,15916.00
2018-08-14T10:46:58.400Z,15760.00
2018-08-14T10:47:58.433Z,13804.00
2018-08-14T10:48:58.460Z,12028.00
2018-08-14T10:49:58.494Z,11756.00
2018-08-14T10:50:58.535Z,11212.00
2018-08-14T10:51:58.544Z,11304.00
2018-08-14T10:52:58.573Z,11172.00
2018-08-14T10:53:58.597Z,10648.00
2018-08-14T10:54:58.628Z,9756.00
2018-08-14T10:55:58.652Z,8364.00
2018-08-14T10:56:58.680Z,7276.00
2018-08-14T10:57:58.708Z,6684.00
2018-08-14T10:58:58.736Z,5840.00
2018-08-14T10:59:58.765Z,4452.00
2018-08-14T11:00:58.794Z,3544.00
2018-08-14T11:01:58.815Z,3420.00
2018-08-14T11:02:58.843Z,4292.00
2018-08-14T11:03:58.875Z,6704.00
2018-08-14T11:04:58.924Z,10316.00
2018-08-14T11:05:58.913Z,12464.00
2018-08-14T11:06:58.943Z,13908.00
2018-08-14T11:07:58.979Z,14832.00
2018-08-14T11:08:59.001Z,15572.00
2018-08-14T11:09:59.028Z,16224.00
2018-08-14T11:10:59.053Z,16948.00
2018-08-14T11:11:59.084Z,17124.00
2018-08-14T11:12:59.112Z,16808.00
2018-08-14T11:13:59.124Z,16016.00
2018-08-14T11:14:59.155Z,15316.00
2018-08-14T11:15:59.180Z,14628.00
2018-08-14T11:16:59.205Z,13576.00
2018-08-14T11:17:59.224Z,11940.00
2018-08-14T11:18:59.251Z,9712.00
2018-08-14T11:19:59.276Z,8532.00
2018-08-14T11:20:59.301Z,8516.00
2018-08-14T11:21:59.329Z,8800.00
2018-08-14T11:22:59.349Z,9308.00
2018-08-14T11:23:59.378Z,9888.00
2018-08-14T11:24:59.409Z,10452.00
2018-08-14T11:25:59.421Z,10392.00
2018-08-14T11:26:59.451Z,10356.00
2018-08-14T11:27:59.488Z,11276.00
2018-08-14T11:28:59.500Z,12348.00
2018-08-14T11:29:59.522Z,13400.00
2018-08-14T11:30:59.552Z,15360.00
2018-08-14T11:31:59.577Z,18528.00
2018-08-14T11:32:59.600Z,22272.00
2018-08-14T11:33:59.618Z,25920.00
2018-08-14T11:34:59.661Z,34016.00
2018-08-14T11:35:59.669Z,39904.00
2018-08-14T11:36:59.696Z,64736.00
2018-08-14T11:37:59.724Z,68800.00
2018-08-14T11:38:59.751Z,34816.00
2018-08-14T11:39:59.780Z,32576.00
2018-08-14T11:40:59.801Z,32736.00
2018-08-14T11:41:59.830Z,90336.00
2018-08-14T11:42:59.848Z,31744.00
2018-08-14T11:43:59.880Z,70944.00
2018-08-14T11:44:59.906Z,131552.00
2018-08-14T11:45:59.932Z,134016.00
2018-08-14T11:46:59.961Z,37440.00
2018-08-14T11:47:59.990Z,57344.00
2018-08-14T11:49:00.025Z,73472.00
2018-08-14T11:50:00.060Z,118560.00
2018-08-14T11:51:00.140Z,26144.00
2018-08-14T11:52:00.106Z,26848.00
2018-08-14T11:53:00.136Z,29760.00
2018-08-14T11:54:00.164Z,103136.00
2018-08-14T11:55:00.190Z,125600.00
2018-08-14T11:56:00.220Z,123104.00
2018-08-14T11:57:00.254Z,126240.00
2018-08-14T11:58:00.282Z,127552.00
2018-08-14T11:59:00.310Z,45920.00
2018-08-14T12:00:00.352Z,101984.00
2018-08-14T12:01:00.369Z,114784.00
2018-08-14T12:02:00.443Z,118688.00
2018-08-14T12:03:00.438Z,116512.00
2018-08-14T12:04:00.470Z,113120.00
2018-08-14T12:05:00.499Z,119808.00
2018-08-14T12:06:00.535Z,119584.00
2018-08-14T12:07:00.697Z,124000.00
2018-08-14T12:08:00.600Z,121504.00
2018-08-14T12:09:00.632Z,120352.00
2018-08-14T12:10:00.664Z,120224.00
2018-08-14T12:11:00.789Z,110304.00
2018-08-14T12:12:00.734Z,118848.00
2018-08-14T12:13:00.845Z,116480.00
2018-08-14T12:14:00.802Z,86208.00
2018-08-14T12:15:00.846Z,109504.00
2018-08-14T12:16:00.875Z,114368.00
2018-08-14T12:17:00.914Z,116896.00
2018-08-14T12:18:00.949Z,61536.00
2018-08-14T12:19:00.988Z,76064.00
2018-08-14T12:20:01.020Z,91072.00
2018-08-14T12:21:01.055Z,121440.00
2018-08-14T12:22:01.092Z,39232.00